Time;durP1;ratioP1;P1;durP2;ratioP2;P2;SDS_P1;SDS_P2;PMS_P1;PMS_P2;Temp;Humidity;BMP_temperature;BMP_pressure;BME280_temperature;BME280_humidity;BME280_pressure;Samples;Min_cycle;Max_cycle;Signal;HPM_P1;HPM_P2
2022/07/18 00:00:07;;;;;;;;;;;28.40;30.90;;;;;;677893;29;1457;-84
2022/07/18 00:00:27;;;;;;;;;;;28.40;31.00;;;;;;678479;29;1447;-84
2022/07/18 00:00:48;;;;;;;;;;;28.40;31.00;;;;;;678588;29;1234;-85
2022/07/18 00:01:08;;;;;;;;;;;28.40;31.00;;;;;;680511;29;1364;-85
2022/07/18 00:01:29;;;;;;;;;;;28.40;31.20;;;;;;680625;29;1002;-85
2022/07/18 00:01:50;;;;;;;;;;;;;;;;;;680171;29;891;-87
2022/07/18 00:02:10;;;;;;;;;;;28.40;31.10;;;;;;678120;29;1223;-85
2022/07/18 00:02:31;;;;;;;;;;;28.40;30.80;;;;;;678231;29;1204;-89
2022/07/18 00:02:52;;;;;;;;;;;;;;;;;;678084;29;1263;-88
2022/07/18 00:03:13;;;;;;;;;;;;;;;;;;677615;29;1208;-87
2022/07/18 00:03:33;;;;;;;;;;;28.40;30.80;;;;;;679860;29;1458;-86
2022/07/18 00:03:54;;;;;;;;;;;28.40;30.80;;;;;;680822;29;784;-84
2022/07/18 00:04:15;;;;;;;;;;;28.40;31.00;;;;;;683060;29;938;-82
2022/07/18 00:04:36;;;;;;;;;;;28.40;30.70;;;;;;683026;29;1222;-84
2022/07/18 00:04:56;;;;;;;;;;;28.40;30.70;;;;;;683208;29;851;-84
2022/07/18 00:05:17;;;;;;;;;;;28.40;30.60;;;;;;683155;28;1287;-83
2022/07/18 00:05:37;;;;;;;;;;;28.40;30.80;;;;;;685723;28;1238;-85
2022/07/18 00:05:58;;;;;;;;;;;28.40;30.80;;;;;;683053;29;1370;-87
2022/07/18 00:06:19;;;;;;;;;;;28.40;30.60;;;;;;683190;28;1190;-83
2022/07/18 00:06:39;;;;;;;;;;;28.50;30.40;;;;;;685651;28;949;-84
2022/07/18 00:07:00;;;;;;;;;;;28.50;30.20;;;;;;682648;29;980;-86
2022/07/18 00:07:20;;;;;;;;;;;28.40;30.40;;;;;;683083;29;1268;-84
2022/07/18 00:07:41;;;;;;;;;;;28.50;30.30;;;;;;683189;28;850;-89
2022/07/18 00:08:02;;;;;;;;;;;;;;;;;;683451;28;1277;-87
2022/07/18 00:08:23;;;;;;;;;;;;;;;;;;685739;28;823;-84
2022/07/18 00:08:44;;;;;;;;;;;;;;;;;;683574;28;1469;-83
2022/07/18 00:09:04;;;;;;;;;;;28.50;30.10;;;;;;684293;28;1446;-82
2022/07/18 00:09:25;;;;;;;;;;;28.40;30.00;;;;;;680051;29;1594;-85
2022/07/18 00:09:45;;;;;;;;;;;28.50;30.00;;;;;;681844;29;1593;-88
2022/07/18 00:10:06;;;;;;;;;;;28.50;30.10;;;;;;683195;29;1350;-86
2022/07/18 00:10:27;;;;;;;;;;;;;;;;;;683035;29;1251;-85
2022/07/18 00:10:48;;;;;;;;;;;28.50;30.00;;;;;;685620;28;1266;-83
2022/07/18 00:11:09;;;;;;;;;;;;;;;;;;685901;28;1314;-85
2022/07/18 00:11:29;;;;;;;;;;;28.50;29.90;;;;;;681883;28;1911;-84
2022/07/18 00:11:51;;;;;;;;;;;28.40;29.90;;;;;;682966;29;1252;-84
2022/07/18 00:12:12;;;;;;;;;;;;;;;;;;679833;29;1268;-88
2022/07/18 00:12:33;;;;;;;;;;;;;;;;;;679616;29;1477;-87
2022/07/18 00:12:53;;;;;;;;;;;28.50;29.80;;;;;;678246;29;1399;-85
2022/07/18 00:13:19;;;;;;;;;;;28.50;30.00;;;;;;678091;29;1330;-86
2022/07/18 00:14:06;;;;;;;;;;;28.50;30.00;;;;;;679024;29;1303;-86
2022/07/18 00:14:26;;;;;;;;;;;28.50;29.90;;;;;;677655;29;1616;-83
2022/07/18 00:14:47;;;;;;;;;;;28.50;30.00;;;;;;677916;29;1250;-87
2022/07/18 00:15:08;;;;;;;;;;;28.50;30.00;;;;;;679507;29;979;-84
2022/07/18 00:15:29;;;;;;;;;;;;;;;;;;681425;29;824;-84
2022/07/18 00:15:49;;;;;;;;;;;28.50;30.00;;;;;;680425;29;1223;-86
2022/07/18 00:16:10;;;;;;;;;;;28.50;30.00;;;;;;680612;29;867;-84
2022/07/18 00:16:31;;;;;;;;;;;;;;;;;;680794;29;1218;-87
2022/07/18 00:16:52;;;;;;;;;;;;;;;;;;680999;29;1187;-88
2022/07/18 00:17:12;;;;;;;;;;;28.50;30.00;;;;;;680469;29;1279;-86
2022/07/18 00:17:33;;;;;;;;;;;28.50;29.90;;;;;;680589;29;840;-87
2022/07/18 00:17:53;;;;;;;;;;;28.50;30.00;;;;;;680423;29;1285;-82
2022/07/18 00:18:14;;;;;;;;;;;28.40;29.90;;;;;;680574;29;792;-83
2022/07/18 00:18:35;;;;;;;;;;;28.40;29.80;;;;;;680813;29;790;-87
2022/07/18 00:18:58;;;;;;;;;;;28.40;29.90;;;;;;680862;29;1146;-87
2022/07/18 00:19:19;;;;;;;;;;;;;;;;;;683197;29;1305;-85
2022/07/18 00:19:39;;;;;;;;;;;28.40;30.00;;;;;;683929;28;961;-89
2022/07/18 00:20:00;;;;;;;;;;;28.50;30.00;;;;;;683134;29;1147;-86
2022/07/18 00:20:21;;;;;;;;;;;28.40;29.80;;;;;;683330;29;871;-90
2022/07/18 00:20:42;;;;;;;;;;;;;;;;;;683156;29;1327;-87
2022/07/18 00:21:03;;;;;;;;;;;28.50;30.00;;;;;;680884;29;1206;-84
2022/07/18 00:21:24;;;;;;;;;;;28.40;29.80;;;;;;680605;29;1091;-86
2022/07/18 00:21:45;;;;;;;;;;;28.40;29.80;;;;;;680436;29;1345;-85
2022/07/18 00:22:06;;;;;;;;;;;28.40;29.90;;;;;;680335;29;1286;-85
2022/07/18 00:22:26;;;;;;;;;;;28.40;29.80;;;;;;679876;29;1307;-87
2022/07/18 00:22:47;;;;;;;;;;;28.40;29.80;;;;;;678306;29;903;-87
2022/07/18 00:23:08;;;;;;;;;;;28.40;29.90;;;;;;683423;28;1237;-84
2022/07/18 00:23:28;;;;;;;;;;;;;;;;;;682774;29;1346;-84
2022/07/18 00:23:49;;;;;;;;;;;28.40;29.80;;;;;;680355;29;1200;-84
2022/07/18 00:24:10;;;;;;;;;;;28.50;29.90;;;;;;678233;29;1127;-84
2022/07/18 00:24:31;;;;;;;;;;;28.50;29.90;;;;;;680542;29;844;-84
2022/07/18 00:24:52;;;;;;;;;;;28.40;30.00;;;;;;680938;29;816;-85
2022/07/18 00:25:12;;;;;;;;;;;28.40;29.90;;;;;;680267;29;1365;-89
2022/07/18 00:25:33;;;;;;;;;;;28.50;30.20;;;;;;680885;29;1273;-86
2022/07/18 00:25:54;;;;;;;;;;;28.40;29.80;;;;;;683496;28;1151;-86
2022/07/18 00:26:14;;;;;;;;;;;28.40;29.80;;;;;;685842;28;891;-85
2022/07/18 00:26:35;;;;;;;;;;;28.40;29.80;;;;;;681855;29;1158;-85
2022/07/18 00:26:55;;;;;;;;;;;28.40;30.00;;;;;;680510;29;819;-86
2022/07/18 00:27:16;;;;;;;;;;;28.40;29.90;;;;;;680371;29;864;-83
2022/07/18 00:27:36;;;;;;;;;;;28.40;29.80;;;;;;680649;29;1483;-86
2022/07/18 00:27:57;;;;;;;;;;;28.50;29.80;;;;;;682962;29;1264;-86
2022/07/18 00:28:17;;;;;;;;;;;28.40;29.80;;;;;;683126;29;1103;-86
2022/07/18 00:28:38;;;;;;;;;;;28.40;29.80;;;;;;683031;29;1147;-86
2022/07/18 00:28:59;;;;;;;;;;;28.50;29.80;;;;;;683086;29;969;-83
2022/07/18 00:29:19;;;;;;;;;;;28.40;29.80;;;;;;683486;28;973;-87
2022/07/18 00:29:40;;;;;;;;;;;28.50;29.90;;;;;;682799;29;1302;-85
2022/07/18 00:30:00;;;;;;;;;;;28.40;29.90;;;;;;677837;29;1387;-84
2022/07/18 00:30:21;;;;;;;;;;;28.40;29.90;;;;;;678087;29;1318;-83
2022/07/18 00:30:42;;;;;;;;;;;;;;;;;;680558;29;961;-88
2022/07/18 00:31:03;;;;;;;;;;;28.50;30.00;;;;;;680278;29;1301;-87
2022/07/18 00:31:23;;;;;;;;;;;28.40;29.80;;;;;;681145;29;1959;-88
2022/07/18 00:31:44;;;;;;;;;;;28.40;29.80;;;;;;683479;29;1308;-87
2022/07/18 00:32:05;;;;;;;;;;;28.40;29.80;;;;;;683154;29;941;-86
2022/07/18 00:32:26;;;;;;;;;;;28.40;29.80;;;;;;683162;29;1299;-84
2022/07/18 00:32:47;;;;;;;;;;;;;;;;;;681435;29;905;-85
2022/07/18 00:33:08;;;;;;;;;;;;;;;;;;683543;29;823;-86
2022/07/18 00:33:29;;;;;;;;;;;;;;;;;;684033;28;811;-86
2022/07/18 00:33:49;;;;;;;;;;;28.40;29.80;;;;;;686744;28;858;-87
2022/07/18 00:34:10;;;;;;;;;;;28.40;29.80;;;;;;686856;28;1385;-88
2022/07/18 00:34:31;;;;;;;;;;;28.50;29.90;;;;;;684205;29;1409;-83
2022/07/18 00:34:52;;;;;;;;;;;;;;;;;;684193;29;855;-87
2022/07/18 00:35:12;;;;;;;;;;;28.50;29.80;;;;;;681447;29;1268;-85
2022/07/18 00:35:33;;;;;;;;;;;28.40;29.90;;;;;;681658;29;827;-85
2022/07/18 00:35:54;;;;;;;;;;;28.40;29.80;;;;;;681576;29;800;-85
2022/07/18 00:36:14;;;;;;;;;;;28.40;29.80;;;;;;681654;29;1092;-84
2022/07/18 00:36:35;;;;;;;;;;;28.40;29.80;;;;;;683892;29;1515;-92
2022/07/18 00:36:57;;;;;;;;;;;;;;;;;;684435;28;1117;-90
2022/07/18 00:37:18;;;;;;;;;;;28.40;29.80;;;;;;683750;29;850;-89
2022/07/18 00:37:38;;;;;;;;;;;28.40;29.90;;;;;;683864;29;771;-88
2022/07/18 00:38:01;;;;;;;;;;;;;;;;;;680401;29;1244;-86
2022/07/18 00:38:22;;;;;;;;;;;;;;;;;;679059;29;806;-83
2022/07/18 00:38:43;;;;;;;;;;;;;;;;;;680123;29;1213;-94
2022/07/18 00:39:04;;;;;;;;;;;28.40;30.00;;;;;;684311;29;871;-85
2022/07/18 00:39:25;;;;;;;;;;;;;;;;;;682830;29;1344;-90
2022/07/18 00:39:48;;;;;;;;;;;28.40;29.80;;;;;;684047;29;1300;-91
2022/07/18 00:40:11;;;;;;;;;;;;;;;;;;685651;29;1412;-88
2022/07/18 00:40:36;;;;;;;;;;;28.40;29.80;;;;;;683500;29;897;-90
2022/07/18 00:41:02;;;;;;;;;;;28.40;29.80;;;;;;678880;29;1409;-92
2022/07/18 00:41:39;;;;;;;;;;;28.50;29.80;;;;;;681137;29;1234;-92
2022/07/18 00:42:26;;;;;;;;;;;;;;;;;;;;;
2022/07/18 00:43:09;;;;;;;;;;;28.40;29.70;;;;;;681264;29;1386;-91
2022/07/18 00:43:41;;;;;;;;;;;28.40;29.70;;;;;;678328;29;1148;-91
2022/07/18 00:44:08;;;;;;;;;;;;;;;;;;678268;29;1377;-90
2022/07/18 00:44:51;;;;;;;;;;;28.40;29.80;;;;;;678318;29;1152;-93
2022/07/18 00:45:15;;;;;;;;;;;;;;;;;;670543;29;1453;-92
2022/07/18 00:45:36;;;;;;;;;;;28.40;29.80;;;;;;670551;29;1141;-90
2022/07/18 00:45:57;;;;;;;;;;;28.40;29.80;;;;;;668859;29;1202;-90
2022/07/18 00:46:21;;;;;;;;;;;28.40;29.70;;;;;;668902;29;1169;-89
2022/07/18 00:46:42;;;;;;;;;;;28.40;29.70;;;;;;670599;29;1193;-89
2022/07/18 00:47:03;;;;;;;;;;;;;;;;;;670514;29;1322;-89
2022/07/18 00:47:24;;;;;;;;;;;28.40;29.80;;;;;;672273;29;1334;-88
2022/07/18 00:47:45;;;;;;;;;;;28.40;29.80;;;;;;667226;29;1231;-88
2022/07/18 00:48:08;;;;;;;;;;;28.40;29.80;;;;;;668825;29;1314;-89
2022/07/18 00:48:32;;;;;;;;;;;;;;;;;;670575;29;1172;-88
2022/07/18 00:48:53;;;;;;;;;;;28.40;29.80;;;;;;670590;29;1224;-90
2022/07/18 00:49:14;;;;;;;;;;;28.40;29.90;;;;;;666759;29;1222;-88
2022/07/18 00:50:07;;;;;;;;;;;28.40;29.80;;;;;;666699;29;1352;-90
2022/07/18 00:50:33;;;;;;;;;;;28.40;30.20;;;;;;664813;29;1391;-90
2022/07/18 00:50:59;;;;;;;;;;;28.30;30.00;;;;;;667932;29;1250;-91
2022/07/18 00:51:45;;;;;;;;;;;;;;;;;;;;;
2022/07/18 00:54:57;;;;;;;;;;;;;;;;;;682084;28;1364;-91
2022/07/18 00:55:23;;;;;;;;;;;28.40;30.10;;;;;;683566;29;1111;-91
2022/07/18 00:56:42;;;;;;;;;;;28.40;30.80;;;;;;688340;28;1315;-90
2022/07/18 00:57:38;;;;;;;;;;;28.30;31.00;;;;;;683519;28;1168;-90
2022/07/18 00:58:18;;;;;;;;;;;28.40;31.00;;;;;;675514;29;1416;-90
2022/07/18 01:02:16;;;;;;;;;;;;;;;;;;;;;
2022/07/18 01:02:43;;;;;;;;;;;28.40;31.70;;;;;;675130;29;1376;-86
2022/07/18 01:03:03;;;;;;;;;;;28.40;31.90;;;;;;674909;29;1418;-84
2022/07/18 01:03:41;;;;;;;;;;;;;;;;;;;;;
2022/07/18 01:04:11;;;;;;;;;;;28.40;32.10;;;;;;674235;29;1218;-85
2022/07/18 01:04:32;;;;;;;;;;;;;;;;;;671845;29;1398;-84
2022/07/18 01:05:07;;;;;;;;;;;28.30;31.70;;;;;;674533;29;1127;-85
2022/07/18 01:05:51;;;;;;;;;;;28.40;30.90;;;;;;671565;29;1233;-84
2022/07/18 01:06:21;;;;;;;;;;;28.30;30.80;;;;;;672419;29;1043;-83
2022/07/18 01:06:46;;;;;;;;;;;28.30;30.70;;;;;;672611;29;1306;-83
2022/07/18 01:07:18;;;;;;;;;;;28.30;30.60;;;;;;670004;29;1275;-84
2022/07/18 01:07:47;;;;;;;;;;;28.30;31.10;;;;;;672419;29;1382;-84
2022/07/18 01:08:11;;;;;;;;;;;28.30;31.80;;;;;;670251;29;1371;-84
2022/07/18 01:08:32;;;;;;;;;;;;;;;;;;671741;29;1371;-83
2022/07/18 01:09:05;;;;;;;;;;;28.30;30.70;;;;;;670396;29;994;-84
2022/07/18 01:09:29;;;;;;;;;;;;;;;;;;669730;29;936;-85
2022/07/18 01:09:53;;;;;;;;;;;28.30;30.60;;;;;;669392;29;1244;-84
2022/07/18 01:10:30;;;;;;;;;;;28.30;32.00;;;;;;668901;29;1335;-86
2022/07/18 01:11:26;;;;;;;;;;;;;;;;;;;;;
2022/07/18 01:11:56;;;;;;;;;;;28.30;31.10;;;;;;665513;29;1285;-85
2022/07/18 01:12:19;;;;;;;;;;;28.30;31.00;;;;;;662797;29;1207;-85
2022/07/18 01:12:46;;;;;;;;;;;28.30;30.70;;;;;;665057;29;1453;-84
2022/07/18 01:13:11;;;;;;;;;;;28.30;30.80;;;;;;665088;29;1338;-84
2022/07/18 01:14:13;;;;;;;;;;;28.30;30.70;;;;;;665056;29;1615;-84
2022/07/18 01:14:50;;;;;;;;;;;;;;;;;;;;;
2022/07/18 01:15:13;;;;;;;;;;;;;;;;;;654476;30;1238;-85
2022/07/18 01:15:53;;;;;;;;;;;;;;;;;;;;;
2022/07/18 01:16:22;;;;;;;;;;;28.30;30.60;;;;;;657625;30;999;-85
2022/07/18 01:16:43;;;;;;;;;;;;;;;;;;657594;30;1320;-85
2022/07/18 01:17:19;;;;;;;;;;;28.20;30.30;;;;;;657692;30;1341;-85
2022/07/18 01:17:41;;;;;;;;;;;28.20;30.40;;;;;;655418;30;1252;-84
2022/07/18 01:18:02;;;;;;;;;;;;;;;;;;654302;30;1230;-85
2022/07/18 01:18:27;;;;;;;;;;;28.20;30.70;;;;;;656725;30;1402;-85
2022/07/18 01:18:48;;;;;;;;;;;28.20;30.80;;;;;;657669;30;1282;-83
2022/07/18 01:19:12;;;;;;;;;;;28.20;30.70;;;;;;660232;30;1019;-82
2022/07/18 01:19:35;;;;;;;;;;;28.20;30.40;;;;;;661887;30;1722;-83
2022/07/18 01:19:58;;;;;;;;;;;28.20;30.40;;;;;;659374;30;1332;-89
2022/07/18 01:20:22;;;;;;;;;;;28.30;30.40;;;;;;655940;30;1269;-84
2022/07/18 01:20:43;;;;;;;;;;;;;;;;;;656373;30;1131;-83
2022/07/18 01:21:05;;;;;;;;;;;28.20;30.40;;;;;;661327;30;1312;-85
2022/07/18 01:21:26;;;;;;;;;;;28.20;30.50;;;;;;659981;30;1331;-88
2022/07/18 01:21:46;;;;;;;;;;;28.20;30.60;;;;;;657755;30;1197;-86
2022/07/18 01:22:14;;;;;;;;;;;28.20;31.00;;;;;;659002;30;1172;-84
2022/07/18 01:22:35;;;;;;;;;;;28.20;30.30;;;;;;659238;30;1339;-83
2022/07/18 01:22:56;;;;;;;;;;;28.20;30.60;;;;;;656978;30;1368;-84
2022/07/18 01:23:18;;;;;;;;;;;28.20;30.30;;;;;;656583;30;1044;-87
2022/07/18 01:23:40;;;;;;;;;;;28.20;30.30;;;;;;659001;30;1236;-85
2022/07/18 01:24:01;;;;;;;;;;;28.20;30.50;;;;;;657505;29;914;-88
2022/07/18 01:24:24;;;;;;;;;;;28.20;30.30;;;;;;656167;30;1185;-89
2022/07/18 01:24:45;;;;;;;;;;;28.20;30.30;;;;;;657322;30;1473;-86
2022/07/18 01:25:11;;;;;;;;;;;28.20;30.50;;;;;;658122;30;1336;-88
2022/07/18 01:25:32;;;;;;;;;;;;;;;;;;656630;30;1655;-84
2022/07/18 01:25:55;;;;;;;;;;;28.20;30.50;;;;;;653734;30;1343;-84
2022/07/18 01:26:20;;;;;;;;;;;28.20;30.10;;;;;;651499;30;939;-86
2022/07/18 01:26:45;;;;;;;;;;;28.20;30.10;;;;;;653751;30;1097;-92
2022/07/18 01:27:08;;;;;;;;;;;28.20;30.20;;;;;;656280;30;1295;-92
2022/07/18 01:27:31;;;;;;;;;;;28.20;30.40;;;;;;657992;30;1414;-94
2022/07/18 01:27:56;;;;;;;;;;;;;;;;;;654149;30;1229;-89
2022/07/18 01:28:19;;;;;;;;;;;28.20;30.40;;;;;;653762;30;1124;-93
2022/07/18 01:28:41;;;;;;;;;;;;;;;;;;655775;30;928;-90
2022/07/18 01:29:02;;;;;;;;;;;28.20;30.30;;;;;;656392;30;1102;-84
2022/07/18 01:29:23;;;;;;;;;;;28.20;30.50;;;;;;656168;30;1255;-84
2022/07/18 01:29:48;;;;;;;;;;;28.20;30.80;;;;;;657781;30;999;-83
2022/07/18 01:30:14;;;;;;;;;;;28.20;30.60;;;;;;658537;30;1351;-84
2022/07/18 01:30:39;;;;;;;;;;;28.20;30.60;;;;;;658982;29;1301;-85
2022/07/18 01:31:02;;;;;;;;;;;28.20;30.30;;;;;;658282;30;1178;-83
2022/07/18 01:31:33;;;;;;;;;;;28.20;30.50;;;;;;658425;30;1235;-84
2022/07/18 01:31:54;;;;;;;;;;;28.20;30.30;;;;;;658042;30;1361;-85
2022/07/18 01:32:21;;;;;;;;;;;28.20;30.20;;;;;;655982;30;1258;-85
2022/07/18 01:32:56;;;;;;;;;;;28.20;30.30;;;;;;656486;30;1261;-84
2022/07/18 01:33:17;;;;;;;;;;;28.20;30.40;;;;;;655309;30;1158;-85
2022/07/18 01:33:41;;;;;;;;;;;28.10;30.30;;;;;;653208;30;1415;-85
2022/07/18 01:34:01;;;;;;;;;;;;;;;;;;653577;30;1235;-84
2022/07/18 01:34:31;;;;;;;;;;;28.10;30.20;;;;;;653500;30;1675;-85
2022/07/18 01:34:59;;;;;;;;;;;28.10;30.20;;;;;;657846;30;980;-86
2022/07/18 01:35:22;;;;;;;;;;;;;;;;;;653514;30;1044;-91
2022/07/18 01:35:46;;;;;;;;;;;28.10;30.30;;;;;;653269;30;1539;-87
2022/07/18 01:36:07;;;;;;;;;;;28.10;30.30;;;;;;653234;30;1561;-88
2022/07/18 01:36:29;;;;;;;;;;;28.10;30.30;;;;;;653431;30;1149;-85
2022/07/18 01:36:50;;;;;;;;;;;28.10;30.60;;;;;;655809;30;1416;-83
2022/07/18 01:37:11;;;;;;;;;;;28.10;30.50;;;;;;658224;30;1132;-84
2022/07/18 01:37:33;;;;;;;;;;;;;;;;;;654741;30;1316;-84
2022/07/18 01:37:58;;;;;;;;;;;28.10;30.30;;;;;;658538;30;893;-85
2022/07/18 01:38:41;;;;;;;;;;;28.10;30.00;;;;;;658159;30;960;-84
2022/07/18 01:39:05;;;;;;;;;;;28.10;30.30;;;;;;656827;30;834;-84
2022/07/18 01:39:25;;;;;;;;;;;28.10;30.30;;;;;;657540;30;1359;-84
2022/07/18 01:39:48;;;;;;;;;;;28.10;30.30;;;;;;657766;30;905;-83
2022/07/18 01:40:12;;;;;;;;;;;28.10;30.50;;;;;;659900;30;1429;-83
2022/07/18 01:40:34;;;;;;;;;;;28.10;30.50;;;;;;659752;29;1420;-84
2022/07/18 01:40:58;;;;;;;;;;;28.10;30.40;;;;;;660223;30;1590;-87
2022/07/18 01:41:18;;;;;;;;;;;28.10;31.40;;;;;;664104;29;1355;-84
2022/07/18 01:41:42;;;;;;;;;;;28.10;31.00;;;;;;665024;29;1442;-87
2022/07/18 01:42:07;;;;;;;;;;;28.10;30.30;;;;;;663090;29;1399;-89
2022/07/18 01:42:27;;;;;;;;;;;28.10;30.60;;;;;;662286;29;1292;-93
2022/07/18 01:42:48;;;;;;;;;;;28.10;30.40;;;;;;660061;29;1434;-84
2022/07/18 01:43:10;;;;;;;;;;;28.10;30.60;;;;;;659140;30;1367;-85
2022/07/18 01:43:34;;;;;;;;;;;28.10;30.50;;;;;;659385;30;961;-86
2022/07/18 01:43:54;;;;;;;;;;;28.10;30.30;;;;;;659711;30;937;-87
2022/07/18 01:44:15;;;;;;;;;;;28.10;30.50;;;;;;657843;30;1426;-92
2022/07/18 01:44:36;;;;;;;;;;;28.10;30.30;;;;;;656196;30;1250;-88
2022/07/18 01:44:59;;;;;;;;;;;28.10;30.30;;;;;;656450;30;965;-90
2022/07/18 01:45:20;;;;;;;;;;;;;;;;;;658802;30;1429;-93
2022/07/18 01:45:41;;;;;;;;;;;28.10;30.50;;;;;;658732;30;845;-88
2022/07/18 01:46:02;;;;;;;;;;;;;;;;;;658745;30;1621;-89
2022/07/18 01:46:27;;;;;;;;;;;28.10;30.50;;;;;;661269;29;1399;-83
2022/07/18 01:46:47;;;;;;;;;;;28.10;30.30;;;;;;661202;29;1351;-86
2022/07/18 01:47:09;;;;;;;;;;;28.10;30.20;;;;;;660265;29;1308;-94
2022/07/18 01:47:31;;;;;;;;;;;;;;;;;;658850;30;1450;-93
2022/07/18 01:47:52;;;;;;;;;;;;;;;;;;661112;29;1332;-91
2022/07/18 01:48:13;;;;;;;;;;;;;;;;;;660277;29;1525;-87
2022/07/18 01:48:36;;;;;;;;;;;28.20;30.30;;;;;;661940;29;1474;-96
2022/07/18 01:48:57;;;;;;;;;;;28.20;30.30;;;;;;661485;29;899;-93
2022/07/18 01:49:19;;;;;;;;;;;28.10;30.50;;;;;;661366;29;1201;-91
2022/07/18 01:49:40;;;;;;;;;;;;;;;;;;660786;29;1229;-91
2022/07/18 01:50:01;;;;;;;;;;;28.20;30.20;;;;;;661275;29;1261;-92
2022/07/18 01:50:24;;;;;;;;;;;28.20;30.50;;;;;;660608;30;845;-92
2022/07/18 01:50:47;;;;;;;;;;;28.20;30.20;;;;;;659062;29;1233;-91
2022/07/18 01:51:10;;;;;;;;;;;28.20;30.30;;;;;;658947;29;1347;-90
2022/07/18 01:51:32;;;;;;;;;;;28.20;30.30;;;;;;659239;29;1896;-89
2022/07/18 01:51:53;;;;;;;;;;;28.20;30.30;;;;;;657629;30;927;-89
2022/07/18 01:52:15;;;;;;;;;;;28.20;30.30;;;;;;657732;29;1097;-89
2022/07/18 01:52:36;;;;;;;;;;;28.20;30.20;;;;;;669392;29;1058;-82
2022/07/18 01:52:59;;;;;;;;;;;28.20;30.40;;;;;;669442;29;1016;-87
2022/07/18 01:53:32;;;;;;;;;;;28.20;30.30;;;;;;669380;29;1464;-93
2022/07/18 01:53:55;;;;;;;;;;;28.20;30.20;;;;;;669049;29;946;-89
2022/07/18 01:54:16;;;;;;;;;;;28.20;30.20;;;;;;669397;29;1377;-89
2022/07/18 01:54:37;;;;;;;;;;;28.20;30.10;;;;;;669179;29;1077;-91
2022/07/18 01:55:02;;;;;;;;;;;28.20;30.20;;;;;;669308;29;1439;-90
2022/07/18 01:55:23;;;;;;;;;;;28.20;30.20;;;;;;666732;29;1296;-85
2022/07/18 01:55:44;;;;;;;;;;;28.20;30.20;;;;;;664051;29;1316;-88
2022/07/18 01:56:07;;;;;;;;;;;28.20;30.20;;;;;;664235;29;1003;-85
2022/07/18 01:56:28;;;;;;;;;;;28.20;30.30;;;;;;664167;29;1272;-90
2022/07/18 01:56:50;;;;;;;;;;;28.20;30.30;;;;;;664119;29;1234;-88
2022/07/18 01:57:11;;;;;;;;;;;28.20;30.20;;;;;;664837;29;878;-89
2022/07/18 01:57:34;;;;;;;;;;;;;;;;;;666999;29;1413;-87
2022/07/18 01:57:54;;;;;;;;;;;28.20;30.10;;;;;;668733;29;1462;-91
2022/07/18 01:58:15;;;;;;;;;;;28.20;30.50;;;;;;668692;29;1251;-90
2022/07/18 01:58:38;;;;;;;;;;;28.20;30.20;;;;;;668674;29;1239;-88
2022/07/18 01:58:59;;;;;;;;;;;;;;;;;;668772;29;1224;-91
2022/07/18 01:59:20;;;;;;;;;;;;;;;;;;668471;29;1457;-87
2022/07/18 01:59:41;;;;;;;;;;;28.20;30.20;;;;;;673296;29;1358;-88
2022/07/18 02:00:03;;;;;;;;;;;;;;;;;;673516;29;1511;-89
2022/07/18 02:00:24;;;;;;;;;;;28.20;30.00;;;;;;672886;29;1428;-90
2022/07/18 02:00:45;;;;;;;;;;;28.20;30.20;;;;;;671006;29;1299;-91
2022/07/18 02:01:05;;;;;;;;;;;28.20;30.20;;;;;;671165;29;1412;-89
2022/07/18 02:01:26;;;;;;;;;;;28.20;30.20;;;;;;670603;29;1252;-89
2022/07/18 02:01:48;;;;;;;;;;;28.20;30.20;;;;;;669222;29;837;-92
2022/07/18 02:02:10;;;;;;;;;;;28.20;30.20;;;;;;671249;29;1251;-93
2022/07/18 02:02:31;;;;;;;;;;;;;;;;;;671315;29;1321;-89
2022/07/18 02:02:52;;;;;;;;;;;;;;;;;;672040;29;1019;-93
2022/07/18 02:03:13;;;;;;;;;;;28.20;30.10;;;;;;673795;29;1602;-89
2022/07/18 02:03:34;;;;;;;;;;;28.20;30.20;;;;;;672510;29;1243;-87
2022/07/18 02:03:54;;;;;;;;;;;28.20;30.10;;;;;;671978;29;1371;-92
2022/07/18 02:04:16;;;;;;;;;;;28.20;30.10;;;;;;670675;29;1285;-90
2022/07/18 02:05:17;;;;;;;;;;;28.20;30.20;;;;;;671139;29;675;-92
2022/07/18 02:05:37;;;;;;;;;;;28.20;30.20;;;;;;669288;29;896;-94
2022/07/18 02:06:02;;;;;;;;;;;28.20;30.20;;;;;;671698;29;1472;-93
2022/07/18 02:06:26;;;;;;;;;;;28.20;30.20;;;;;;671548;29;1026;-91
2022/07/18 02:06:47;;;;;;;;;;;28.20;30.10;;;;;;671862;29;820;-91
2022/07/18 02:07:07;;;;;;;;;;;28.20;30.20;;;;;;670774;29;1272;-90
2022/07/18 02:07:38;;;;;;;;;;;28.20;30.30;;;;;;671557;29;829;-86
2022/07/18 02:07:59;;;;;;;;;;;28.20;30.20;;;;;;671392;29;1394;-92
2022/07/18 02:08:26;;;;;;;;;;;;;;;;;;671128;29;1454;-89
2022/07/18 02:08:47;;;;;;;;;;;28.20;30.10;;;;;;671560;29;808;-91
2022/07/18 02:09:09;;;;;;;;;;;28.20;30.10;;;;;;668893;29;1297;-87
2022/07/18 02:09:33;;;;;;;;;;;28.20;30.10;;;;;;668990;29;1252;-92
2022/07/18 02:09:54;;;;;;;;;;;28.20;30.10;;;;;;671546;29;1447;-88
2022/07/18 02:10:19;;;;;;;;;;;28.20;30.10;;;;;;669271;29;1399;-89
2022/07/18 02:10:41;;;;;;;;;;;28.20;30.00;;;;;;668961;29;1229;-88
2022/07/18 02:11:02;;;;;;;;;;;;;;;;;;669409;29;983;-85
2022/07/18 02:11:26;;;;;;;;;;;28.20;30.10;;;;;;669442;29;1097;-86
2022/07/18 02:11:47;;;;;;;;;;;;;;;;;;668846;29;1511;-90
2022/07/18 02:12:08;;;;;;;;;;;28.20;30.10;;;;;;671141;29;840;-88
2022/07/18 02:12:30;;;;;;;;;;;28.20;30.10;;;;;;669194;29;1435;-88
2022/07/18 02:12:51;;;;;;;;;;;28.20;30.20;;;;;;669244;29;1362;-84
2022/07/18 02:13:12;;;;;;;;;;;;;;;;;;668045;29;1375;-90
2022/07/18 02:13:35;;;;;;;;;;;28.20;30.10;;;;;;669226;29;1411;-90
2022/07/18 02:13:57;;;;;;;;;;;28.20;30.00;;;;;;669281;29;1482;-89
2022/07/18 02:14:18;;;;;;;;;;;28.20;30.00;;;;;;669361;29;1258;-91
2022/07/18 02:14:39;;;;;;;;;;;28.20;30.10;;;;;;666632;29;1266;-86
2022/07/18 02:15:01;;;;;;;;;;;;;;;;;;669062;29;1377;-92
2022/07/18 02:15:24;;;;;;;;;;;;;;;;;;669034;29;1071;-87
2022/07/18 02:15:47;;;;;;;;;;;28.20;30.20;;;;;;668517;29;848;-87
2022/07/18 02:16:11;;;;;;;;;;;28.20;30.10;;;;;;668126;29;1326;-88
2022/07/18 02:16:32;;;;;;;;;;;;;;;;;;665640;29;1424;-88
2022/07/18 02:16:52;;;;;;;;;;;28.20;30.10;;;;;;665481;29;1319;-94
2022/07/18 02:17:13;;;;;;;;;;;28.20;30.00;;;;;;665865;29;1288;-94
2022/07/18 02:17:34;;;;;;;;;;;28.20;30.00;;;;;;665777;29;1295;-93
2022/07/18 02:17:57;;;;;;;;;;;28.20;30.10;;;;;;663901;29;1035;-91
2022/07/18 02:18:18;;;;;;;;;;;28.20;30.10;;;;;;666259;29;1252;-93
2022/07/18 02:18:39;;;;;;;;;;;28.20;30.00;;;;;;668142;29;1271;-93
2022/07/18 02:19:00;;;;;;;;;;;;;;;;;;665639;29;1180;-91
2022/07/18 02:19:23;;;;;;;;;;;28.20;30.10;;;;;;666067;29;1090;-93
2022/07/18 02:19:44;;;;;;;;;;;28.20;30.10;;;;;;667704;29;1276;-89
2022/07/18 02:20:09;;;;;;;;;;;28.20;30.00;;;;;;665733;29;1383;-95
2022/07/18 02:20:30;;;;;;;;;;;;;;;;;;664172;29;1415;-91
2022/07/18 02:20:50;;;;;;;;;;;28.20;30.10;;;;;;667566;29;1252;-91
2022/07/18 02:21:13;;;;;;;;;;;28.20;30.20;;;;;;668975;29;1383;-90
2022/07/18 02:21:34;;;;;;;;;;;28.20;30.00;;;;;;669032;29;1436;-84
2022/07/18 02:21:54;;;;;;;;;;;28.20;30.00;;;;;;671125;29;1379;-90
2022/07/18 02:22:15;;;;;;;;;;;28.20;29.90;;;;;;671690;29;1154;-86
2022/07/18 02:22:36;;;;;;;;;;;28.20;30.00;;;;;;668535;29;1395;-89
2022/07/18 02:22:58;;;;;;;;;;;28.20;29.90;;;;;;668996;29;1436;-92
2022/07/18 02:23:58;;;;;;;;;;;28.20;29.90;;;;;;669084;29;975;-91
2022/07/18 02:24:19;;;;;;;;;;;28.20;30.00;;;;;;668991;29;1060;-91
2022/07/18 02:24:40;;;;;;;;;;;;;;;;;;668537;29;1418;-89
2022/07/18 02:25:04;;;;;;;;;;;;;;;;;;669140;29;1402;-87
2022/07/18 02:25:26;;;;;;;;;;;28.20;30.00;;;;;;671530;29;980;-91
2022/07/18 02:25:48;;;;;;;;;;;28.20;30.00;;;;;;671382;29;1282;-91
2022/07/18 02:26:10;;;;;;;;;;;28.20;29.90;;;;;;668795;29;1271;-92
2022/07/18 02:26:30;;;;;;;;;;;28.20;30.00;;;;;;668619;29;1089;-88
2022/07/18 02:26:51;;;;;;;;;;;28.20;30.00;;;;;;668937;29;1364;-89
2022/07/18 02:27:12;;;;;;;;;;;;;;;;;;668751;29;1250;-88
2022/07/18 02:27:33;;;;;;;;;;;;;;;;;;668810;29;1374;-85
2022/07/18 02:27:54;;;;;;;;;;;28.20;29.90;;;;;;669148;29;1224;-90
2022/07/18 02:28:14;;;;;;;;;;;28.20;29.90;;;;;;669058;29;1414;-96
2022/07/18 02:28:38;;;;;;;;;;;28.20;30.00;;;;;;670656;29;1089;-95
2022/07/18 02:29:01;;;;;;;;;;;28.20;29.90;;;;;;669590;29;916;-94
2022/07/18 02:29:26;;;;;;;;;;;28.20;30.00;;;;;;669322;29;961;-88
2022/07/18 02:30:10;;;;;;;;;;;;;;;;;;673258;29;1149;-94
2022/07/18 02:31:00;;;;;;;;;;;28.10;29.80;;;;;;670605;29;1294;-91
2022/07/18 02:31:29;;;;;;;;;;;28.20;29.90;;;;;;668135;29;1009;-89
2022/07/18 02:32:25;;;;;;;;;;;28.20;29.80;;;;;;667286;29;1417;-95
2022/07/18 02:33:14;;;;;;;;;;;28.20;29.80;;;;;;668140;29;1627;-96
2022/07/18 02:34:09;;;;;;;;;;;28.20;30.00;;;;;;665656;29;992;-95
2022/07/18 02:34:35;;;;;;;;;;;28.20;29.90;;;;;;665344;29;1658;-94
2022/07/18 02:35:06;;;;;;;;;;;28.20;29.80;;;;;;663246;30;1312;-96
2022/07/18 02:35:35;;;;;;;;;;;28.20;29.80;;;;;;664462;29;991;-94
2022/07/18 02:36:25;;;;;;;;;;;28.10;29.80;;;;;;666165;29;1022;-96
2022/07/18 02:37:14;;;;;;;;;;;28.10;29.80;;;;;;664776;29;1148;-92
2022/07/18 02:37:45;;;;;;;;;;;28.10;29.90;;;;;;663003;30;972;-91